Golconda, Illinois
Current Conditions -  °F | °C
As of 11:55 AM on Saturday 25 Oct 2014 (Local Time) from KM30 Reporting Station
Clear Clear  
Wind Chill: 72°   Ceiling: Unl
Heat Index: 72°   Visibility: 10mi
Dew Point: 62°   Wind: 0mph
Humidity: 71%   Direction: NA
Pressure: 30.04"   Gusts: NA
Location:  37.37°N, 88.49°W
Report Text: KM30 251655Z AUTO 00000KT 10SM CLR 22/17 A3004 RMK AO2 T02200165
Loading
Personal Weather Stations






























Interactive Weather Map
Tropical Storm Tracking
New forecast layout! Learn more

10-Day Weather Forecast

Advertisements
Track Severe Weather on mobile